createdAt,value
2022-11-30T00:02:02.195Z,3.38
2022-11-30T00:04:30.417Z,3.34
2022-11-30T00:06:58.540Z,3.32
2022-11-30T00:09:28.049Z,3.27
2022-11-30T00:11:56.079Z,3.26
2022-11-30T00:14:24.090Z,3.25
2022-11-30T00:16:52.218Z,3.24
2022-11-30T00:19:20.262Z,3.23
2022-11-30T00:21:48.377Z,3.21
2022-11-30T00:24:16.395Z,3.20
2022-11-30T00:26:45.833Z,3.19
2022-11-30T00:29:13.846Z,3.19
2022-11-30T00:31:42.023Z,3.18
2022-11-30T00:34:10.043Z,3.17
2022-11-30T00:36:38.112Z,3.20
2022-11-30T00:39:06.438Z,3.26
2022-11-30T00:41:34.477Z,3.26
2022-11-30T00:44:03.924Z,3.22
2022-11-30T00:46:32.015Z,3.19
2022-11-30T00:49:00.117Z,3.16
2022-11-30T00:51:28.110Z,3.10
2022-11-30T00:53:56.152Z,3.10
2022-11-30T00:56:25.021Z,3.08
2022-11-30T00:58:53.466Z,3.10
2022-11-30T01:01:22.977Z,3.14
2022-11-30T01:03:51.159Z,3.20
2022-11-30T01:06:19.246Z,3.22
2022-11-30T01:08:48.157Z,3.25
2022-11-30T01:11:18.469Z,3.32
2022-11-30T01:13:46.514Z,3.51
2022-11-30T01:16:17.020Z,3.62
2022-11-30T01:18:47.627Z,3.66
2022-11-30T01:21:17.272Z,3.68
2022-11-30T01:23:45.545Z,3.65
2022-11-30T01:26:13.975Z,3.59
2022-11-30T01:28:44.071Z,3.53
2022-11-30T01:31:14.062Z,3.50
2022-11-30T01:33:43.278Z,3.43
2022-11-30T01:36:14.514Z,3.37
2022-11-30T01:38:44.417Z,3.28
2022-11-30T01:41:14.640Z,3.23
2022-11-30T01:43:45.299Z,3.17
2022-11-30T01:46:36.356Z,3.13
2022-11-30T01:49:15.617Z,3.13
2022-11-30T01:51:48.411Z,3.15
2022-11-30T01:54:20.535Z,3.18
2022-11-30T01:56:51.014Z,3.17
2022-11-30T01:59:21.938Z,3.13
2022-11-30T02:01:50.023Z,3.08
2022-11-30T02:04:22.756Z,3.04
2022-11-30T02:06:52.255Z,3.00
2022-11-30T02:09:22.741Z,2.97
2022-11-30T02:11:51.915Z,2.92
2022-11-30T02:14:31.864Z,2.89
2022-11-30T02:17:09.054Z,2.86
2022-11-30T02:20:09.189Z,2.85
2022-11-30T02:22:58.408Z,2.95
2022-11-30T02:25:32.517Z,3.01
2022-11-30T02:28:18.087Z,3.04
2022-11-30T02:30:51.827Z,3.04
2022-11-30T02:33:24.866Z,3.04
2022-11-30T02:35:55.799Z,3.05
2022-11-30T02:38:26.543Z,3.06
2022-11-30T02:40:54.581Z,3.07
2022-11-30T02:43:25.911Z,3.03
2022-11-30T02:46:04.936Z,2.95
2022-11-30T02:48:41.730Z,2.87
2022-11-30T02:51:12.989Z,2.80
2022-11-30T02:53:41.261Z,2.76
2022-11-30T02:56:09.409Z,2.75
2022-11-30T02:58:37.418Z,2.77
2022-11-30T03:01:07.069Z,2.79
2022-11-30T03:03:35.153Z,2.82
2022-11-30T03:06:03.161Z,2.82
2022-11-30T03:08:31.196Z,2.83
2022-11-30T03:11:03.023Z,2.81
2022-11-30T03:13:31.509Z,2.75
2022-11-30T03:15:59.548Z,2.70
2022-11-30T03:18:28.975Z,2.67
2022-11-30T03:20:57.028Z,2.63
2022-11-30T03:23:25.073Z,2.59
2022-11-30T03:25:53.129Z,2.55
2022-11-30T03:28:21.167Z,2.55
2022-11-30T03:30:50.183Z,2.50
2022-11-30T03:33:18.745Z,2.49
2022-11-30T03:35:49.786Z,2.48
2022-11-30T03:38:17.794Z,2.47
2022-11-30T03:40:45.992Z,2.47
2022-11-30T03:43:14.012Z,2.46
2022-11-30T03:45:42.191Z,2.44
2022-11-30T03:48:10.286Z,2.42
2022-11-30T03:50:38.376Z,2.40
2022-11-30T03:53:07.821Z,2.38
2022-11-30T03:55:36.189Z,2.36
2022-11-30T03:58:04.183Z,2.34
2022-11-30T04:00:32.262Z,2.31
2022-11-30T04:03:00.321Z,2.29
2022-11-30T04:05:28.440Z,2.24
2022-11-30T04:07:56.527Z,2.23
2022-11-30T04:10:26.011Z,2.21
2022-11-30T04:12:54.100Z,2.23
2022-11-30T04:15:22.153Z,2.22
2022-11-30T04:17:50.408Z,2.18
2022-11-30T04:20:18.605Z,2.16
2022-11-30T04:22:46.635Z,2.16
2022-11-30T04:25:15.159Z,2.16
2022-11-30T04:27:46.931Z,2.20
2022-11-30T04:30:15.541Z,2.39
2022-11-30T04:32:44.152Z,2.71
2022-11-30T04:35:12.819Z,2.98
2022-11-30T04:37:40.864Z,3.20
2022-11-30T04:40:10.064Z,3.34
2022-11-30T04:42:38.051Z,3.43
2022-11-30T04:45:08.717Z,3.57
2022-11-30T04:47:36.754Z,3.73
2022-11-30T04:50:05.933Z,3.90
2022-11-30T04:52:34.001Z,4.01
2022-11-30T04:55:02.013Z,4.19
2022-11-30T04:57:30.027Z,4.35
2022-11-30T04:59:58.099Z,4.44
2022-11-30T05:02:27.653Z,4.59
2022-11-30T05:04:55.658Z,4.67
2022-11-30T05:07:23.765Z,4.82
2022-11-30T05:09:51.929Z,4.92
2022-11-30T05:12:19.985Z,4.95
2022-11-30T05:14:48.202Z,5.03
2022-11-30T05:17:16.606Z,5.13
2022-11-30T05:19:48.264Z,5.20
2022-11-30T05:22:16.327Z,5.27
2022-11-30T05:24:44.577Z,5.28
2022-11-30T05:27:17.913Z,5.35
2022-11-30T05:29:49.042Z,5.41
2022-11-30T05:32:17.157Z,5.48
2022-11-30T05:34:50.998Z,5.50
2022-11-30T05:37:19.972Z,5.54
2022-11-30T05:39:48.128Z,5.63
2022-11-30T05:42:16.128Z,5.67
2022-11-30T05:44:45.436Z,5.70
2022-11-30T05:47:13.990Z,5.75
2022-11-30T05:49:42.129Z,5.83
2022-11-30T05:52:11.577Z,5.91
2022-11-30T05:54:39.605Z,5.98
2022-11-30T05:57:07.570Z,6.08
2022-11-30T05:59:35.577Z,6.09
2022-11-30T06:02:03.704Z,6.16
2022-11-30T06:04:31.979Z,6.17
2022-11-30T06:07:00.476Z,6.20
2022-11-30T06:09:30.442Z,6.23
2022-11-30T06:11:58.461Z,6.25
2022-11-30T06:14:26.412Z,6.27
2022-11-30T06:16:54.588Z,6.31
2022-11-30T06:19:22.668Z,6.33
2022-11-30T06:21:50.771Z,6.34
2022-11-30T06:24:18.793Z,6.36
2022-11-30T06:26:49.003Z,6.41
2022-11-30T06:29:16.726Z,6.46
2022-11-30T06:31:44.839Z,6.47
2022-11-30T06:34:12.940Z,6.45
2022-11-30T06:36:41.254Z,6.48
2022-11-30T06:39:10.312Z,6.49
2022-11-30T06:41:38.372Z,6.48
2022-11-30T06:44:10.908Z,6.51
2022-11-30T06:46:38.922Z,6.52
2022-11-30T06:49:07.732Z,6.50
2022-11-30T06:51:37.377Z,6.51
2022-11-30T06:54:05.734Z,6.51
2022-11-30T06:56:33.956Z,6.52
2022-11-30T06:59:02.139Z,6.54
2022-11-30T07:01:31.573Z,6.53
2022-11-30T07:03:59.647Z,6.52
2022-11-30T07:06:27.751Z,6.51
2022-11-30T07:08:55.847Z,6.51
2022-11-30T07:11:23.868Z,6.52
2022-11-30T07:13:51.870Z,6.51
2022-11-30T07:16:19.985Z,6.52
2022-11-30T07:18:49.499Z,6.52
2022-11-30T07:21:17.607Z,6.51
2022-11-30T07:24:04.004Z,6.50
2022-11-30T07:26:32.186Z,6.47
2022-11-30T07:29:00.347Z,6.45
2022-11-30T07:31:29.747Z,6.49
2022-11-30T07:34:00.843Z,6.51
2022-11-30T07:36:30.382Z,6.53
2022-11-30T07:38:58.490Z,6.57
2022-11-30T07:41:27.055Z,6.55
2022-11-30T07:43:55.106Z,6.57
2022-11-30T07:46:23.314Z,6.57
2022-11-30T07:48:51.416Z,6.61
2022-11-30T07:51:22.543Z,6.65
2022-11-30T07:53:51.544Z,6.65
2022-11-30T07:56:21.904Z,6.65
2022-11-30T07:58:50.931Z,6.63
2022-11-30T08:01:21.850Z,6.65
2022-11-30T08:03:50.880Z,6.65
2022-11-30T08:06:24.302Z,6.67
2022-11-30T08:08:53.935Z,6.69
2022-11-30T08:11:24.412Z,6.73
2022-11-30T08:13:52.784Z,6.72
2022-11-30T08:16:23.393Z,6.73
2022-11-30T08:18:52.064Z,6.80
2022-11-30T08:21:23.215Z,6.80
2022-11-30T08:23:54.040Z,6.78
2022-11-30T08:26:27.025Z,6.82
2022-11-30T08:28:58.636Z,6.85
2022-11-30T08:31:32.639Z,6.86
2022-11-30T08:34:03.144Z,6.90
2022-11-30T08:36:36.013Z,6.95
2022-11-30T08:39:05.933Z,6.96
2022-11-30T08:41:35.446Z,7.02
2022-11-30T08:44:04.226Z,7.10
2022-11-30T08:49:23.902Z,7.29
2022-11-30T08:54:47.235Z,7.58
2022-11-30T08:57:17.700Z,7.73
2022-11-30T08:59:45.772Z,7.86
2022-11-30T09:02:18.115Z,7.95
2022-11-30T09:04:49.274Z,8.02
2022-11-30T09:07:20.079Z,8.10
2022-11-30T09:09:48.994Z,8.19
2022-11-30T09:12:17.577Z,8.23
2022-11-30T09:14:50.880Z,8.33
2022-11-30T09:17:22.591Z,8.38
2022-11-30T09:19:50.879Z,8.46
2022-11-30T09:22:21.840Z,8.52
2022-11-30T09:24:50.678Z,8.57
2022-11-30T09:27:19.107Z,8.62
2022-11-30T09:29:47.535Z,8.67
2022-11-30T09:32:15.762Z,8.72
2022-11-30T09:34:44.439Z,8.76
2022-11-30T09:37:12.773Z,8.81
2022-11-30T09:39:42.447Z,8.85
2022-11-30T09:42:30.635Z,8.93
2022-11-30T09:45:08.008Z,8.98
2022-11-30T09:48:01.835Z,9.03
2022-11-30T09:50:33.478Z,9.08
2022-11-30T09:53:06.670Z,9.12
2022-11-30T09:55:42.243Z,9.19
2022-11-30T09:58:27.625Z,9.26
2022-11-30T10:00:55.901Z,9.30
2022-11-30T10:03:25.711Z,9.33
2022-11-30T10:05:59.858Z,9.38
2022-11-30T10:08:39.083Z,9.43
2022-11-30T10:11:26.029Z,9.49
2022-11-30T10:14:05.994Z,9.55
2022-11-30T10:16:46.103Z,9.62
2022-11-30T10:19:28.272Z,9.63
2022-11-30T10:22:06.870Z,9.66
2022-11-30T10:24:53.596Z,9.73
2022-11-30T10:27:39.926Z,9.77
2022-11-30T10:30:15.691Z,9.78
2022-11-30T10:32:46.852Z,9.79
2022-11-30T10:35:23.016Z,9.85
2022-11-30T10:37:53.433Z,9.89
2022-11-30T10:40:32.453Z,9.93
2022-11-30T10:43:13.201Z,9.95
2022-11-30T10:45:47.287Z,9.96
2022-11-30T10:48:22.044Z,10.02
2022-11-30T10:50:50.648Z,10.09
2022-11-30T10:53:18.949Z,10.15
2022-11-30T10:55:56.875Z,10.11
2022-11-30T10:58:34.653Z,10.16
2022-11-30T11:01:06.174Z,10.20
2022-11-30T11:03:34.843Z,10.27
2022-11-30T11:06:15.721Z,10.44
2022-11-30T11:08:47.030Z,10.51
2022-11-30T11:11:30.190Z,10.58
2022-11-30T11:14:17.292Z,10.61
2022-11-30T11:16:59.235Z,10.57
2022-11-30T11:19:34.759Z,10.46
2022-11-30T11:22:05.854Z,10.50
2022-11-30T11:24:35.514Z,10.50
2022-11-30T11:27:03.881Z,10.49
2022-11-30T11:29:35.999Z,10.44
2022-11-30T11:32:10.897Z,10.33
2022-11-30T11:34:39.241Z,10.30
2022-11-30T11:37:09.578Z,10.28
2022-11-30T11:39:37.825Z,10.26
2022-11-30T11:42:06.697Z,10.24
2022-11-30T11:44:37.547Z,10.21
2022-11-30T11:47:10.689Z,10.19
2022-11-30T11:49:40.178Z,10.18
2022-11-30T11:52:18.150Z,10.18
2022-11-30T11:54:51.842Z,10.17
2022-11-30T11:57:24.476Z,10.18
2022-11-30T11:59:58.497Z,10.22
2022-11-30T12:02:39.068Z,10.29
2022-11-30T12:05:13.451Z,10.37
2022-11-30T12:07:47.262Z,10.47
2022-11-30T12:13:19.171Z,10.59
2022-11-30T12:16:06.573Z,10.61
2022-11-30T12:18:47.510Z,10.62
2022-11-30T12:21:17.658Z,10.63
2022-11-30T12:23:55.552Z,10.64
2022-11-30T12:26:32.142Z,10.57
2022-11-30T12:29:25.047Z,10.52
2022-11-30T12:32:09.449Z,10.44
2022-11-30T12:34:50.730Z,10.41
2022-11-30T12:37:30.804Z,10.41
2022-11-30T12:40:11.683Z,10.44
2022-11-30T12:42:47.954Z,10.50
2022-11-30T12:45:24.854Z,10.48
2022-11-30T12:48:05.238Z,10.48
2022-11-30T12:50:41.848Z,10.48
2022-11-30T12:53:20.223Z,10.48
2022-11-30T12:55:58.573Z,10.50
2022-11-30T12:58:35.407Z,10.65
2022-11-30T13:01:14.957Z,10.80
2022-11-30T13:03:56.992Z,10.82
2022-11-30T13:06:31.734Z,10.83
2022-11-30T13:09:04.964Z,10.82
2022-11-30T13:11:38.774Z,10.85
2022-11-30T13:14:14.991Z,10.89
2022-11-30T13:16:45.620Z,10.92
2022-11-30T13:19:41.901Z,11.03
2022-11-30T13:22:16.186Z,11.06
2022-11-30T13:24:52.322Z,11.07
2022-11-30T13:27:27.369Z,11.09
2022-11-30T13:30:20.750Z,11.03
2022-11-30T13:32:57.822Z,10.98
2022-11-30T13:35:54.827Z,10.95
2022-11-30T13:38:39.497Z,10.92
2022-11-30T13:41:10.040Z,10.84
2022-11-30T13:43:45.282Z,10.85
2022-11-30T13:46:18.100Z,10.83
2022-11-30T13:48:46.922Z,10.79
2022-11-30T13:51:36.390Z,10.78
2022-11-30T13:54:40.234Z,10.76
2022-11-30T13:58:04.947Z,10.75
2022-11-30T14:00:48.508Z,10.74
2022-11-30T14:03:28.371Z,10.72
2022-11-30T14:05:57.647Z,10.69
2022-11-30T14:08:38.232Z,10.66
2022-11-30T14:11:41.330Z,10.62
2022-11-30T14:14:50.282Z,10.57
2022-11-30T14:17:22.537Z,10.55
2022-11-30T14:19:53.520Z,10.51
2022-11-30T14:22:22.523Z,10.48
2022-11-30T14:24:52.269Z,10.48
2022-11-30T14:27:25.788Z,10.50
2022-11-30T14:29:58.617Z,10.50
2022-11-30T14:32:40.488Z,10.51
2022-11-30T14:35:13.434Z,10.53
2022-11-30T14:37:46.897Z,10.48
2022-11-30T14:40:22.548Z,10.43
2022-11-30T14:42:53.039Z,10.36
2022-11-30T14:45:23.966Z,10.30
2022-11-30T14:47:54.841Z,10.25
2022-11-30T14:50:26.203Z,10.21
2022-11-30T14:53:04.714Z,10.16
2022-11-30T14:55:40.820Z,10.13
2022-11-30T14:58:19.358Z,10.12
2022-11-30T15:00:48.593Z,10.07
2022-11-30T15:03:25.926Z,10.06
2022-11-30T15:05:56.944Z,10.07
2022-11-30T15:08:29.332Z,10.12
2022-11-30T15:11:05.751Z,10.14
2022-11-30T15:13:35.056Z,10.16
2022-11-30T15:16:03.385Z,10.15
2022-11-30T15:18:31.896Z,10.15
2022-11-30T15:21:08.484Z,10.13
2022-11-30T15:23:36.734Z,10.15
2022-11-30T15:26:12.929Z,10.14
2022-11-30T15:28:45.453Z,10.11
2022-11-30T15:31:16.811Z,10.06
2022-11-30T15:33:48.407Z,10.02
2022-11-30T15:36:31.757Z,9.99
2022-11-30T15:39:04.630Z,9.95
2022-11-30T15:41:35.420Z,9.95
2022-11-30T15:44:03.856Z,9.94
2022-11-30T15:46:41.192Z,9.95
2022-11-30T15:49:18.896Z,9.93
2022-11-30T15:51:54.491Z,9.90
2022-11-30T15:54:50.378Z,9.88
2022-11-30T15:57:20.785Z,9.86
2022-11-30T16:00:06.828Z,9.84
2022-11-30T16:02:36.857Z,9.82
2022-11-30T16:05:24.531Z,9.80
2022-11-30T16:07:55.265Z,9.79
2022-11-30T16:10:26.394Z,9.74
2022-11-30T16:12:57.799Z,9.74
2022-11-30T16:15:28.479Z,9.74
2022-11-30T16:18:01.217Z,9.74
2022-11-30T16:20:29.495Z,9.71
2022-11-30T16:23:02.499Z,9.70
2022-11-30T16:25:33.867Z,9.69
2022-11-30T16:28:03.891Z,9.69
2022-11-30T16:30:33.342Z,9.67
2022-11-30T16:33:01.526Z,9.68
2022-11-30T16:35:37.226Z,9.68
2022-11-30T16:38:06.610Z,9.68
2022-11-30T16:40:38.777Z,9.68
2022-11-30T16:43:11.530Z,9.66
2022-11-30T16:45:41.011Z,9.67
2022-11-30T16:48:10.840Z,9.68
2022-11-30T16:50:39.322Z,9.67
2022-11-30T16:53:07.529Z,9.68
2022-11-30T16:55:40.226Z,9.69
2022-11-30T16:58:10.125Z,9.68
2022-11-30T17:00:42.254Z,9.68
2022-11-30T17:03:19.894Z,9.68
2022-11-30T17:05:48.568Z,9.67
2022-11-30T17:08:17.224Z,9.70
2022-11-30T17:10:45.533Z,9.70
2022-11-30T17:13:18.114Z,9.70
2022-11-30T17:15:46.608Z,9.70
2022-11-30T17:18:14.773Z,9.72
2022-11-30T17:20:43.079Z,9.72
2022-11-30T17:23:11.588Z,9.73
2022-11-30T17:25:40.070Z,9.74
2022-11-30T17:28:08.161Z,9.73
2022-11-30T17:30:37.921Z,9.73
2022-11-30T17:33:06.044Z,9.69
2022-11-30T17:35:34.270Z,9.71
2022-11-30T17:38:02.449Z,9.70
2022-11-30T17:40:30.626Z,9.69
2022-11-30T17:42:58.941Z,9.68
2022-11-30T17:45:27.112Z,9.66
2022-11-30T17:47:56.719Z,9.64
2022-11-30T17:50:25.083Z,9.65
2022-11-30T17:52:53.558Z,9.65
2022-11-30T17:55:21.735Z,9.65
2022-11-30T17:57:49.976Z,9.63
2022-11-30T18:00:19.566Z,9.63
2022-11-30T18:02:51.352Z,9.62
2022-11-30T18:05:22.646Z,9.62
2022-11-30T18:07:51.789Z,9.58
2022-11-30T18:10:20.275Z,9.59
2022-11-30T18:12:48.470Z,9.58
2022-11-30T18:15:16.727Z,9.59
2022-11-30T18:17:44.877Z,9.59
2022-11-30T18:20:13.873Z,9.60
2022-11-30T18:22:43.533Z,9.59
2022-11-30T18:25:13.642Z,9.61
2022-11-30T18:27:42.995Z,9.63
2022-11-30T18:30:13.492Z,9.63
2022-11-30T18:32:43.228Z,9.62
2022-11-30T18:35:11.572Z,9.62
2022-11-30T18:37:40.151Z,9.61
2022-11-30T18:40:11.080Z,9.62
2022-11-30T18:42:41.996Z,9.60
2022-11-30T18:45:11.066Z,9.63
2022-11-30T18:47:39.362Z,9.62
2022-11-30T18:50:08.645Z,9.62
2022-11-30T18:52:37.320Z,9.63
2022-11-30T18:55:06.023Z,9.63
2022-11-30T18:57:36.654Z,9.60
2022-11-30T19:00:06.078Z,9.63
2022-11-30T19:02:34.467Z,9.66
2022-11-30T19:05:02.665Z,9.63
2022-11-30T19:07:31.973Z,9.66
2022-11-30T19:10:00.294Z,9.66
2022-11-30T19:12:28.596Z,9.67
2022-11-30T19:14:58.346Z,9.68
2022-11-30T19:17:28.542Z,9.68
2022-11-30T19:19:56.451Z,9.71
2022-11-30T19:22:30.169Z,9.68
2022-11-30T19:24:58.478Z,9.69
2022-11-30T19:27:28.162Z,9.69
2022-11-30T19:29:57.752Z,9.65
2022-11-30T19:32:25.995Z,9.65
2022-11-30T19:34:54.436Z,9.65
2022-11-30T19:37:22.851Z,9.64
2022-11-30T19:39:50.951Z,9.67
2022-11-30T19:42:19.262Z,9.67
2022-11-30T19:44:49.163Z,9.71
2022-11-30T19:47:18.902Z,9.74
2022-11-30T19:49:48.219Z,9.73
2022-11-30T19:52:16.379Z,9.74
2022-11-30T19:54:44.762Z,9.74
2022-11-30T19:57:13.058Z,9.77
2022-11-30T19:59:42.059Z,9.77
2022-11-30T20:02:12.177Z,9.78
2022-11-30T20:04:41.657Z,9.81
2022-11-30T20:07:09.817Z,9.81
2022-11-30T20:09:38.326Z,9.81
2022-11-30T20:12:07.786Z,9.83
2022-11-30T20:14:36.981Z,9.82
2022-11-30T20:17:05.564Z,9.82
2022-11-30T20:19:33.752Z,9.80
2022-11-30T20:22:05.984Z,9.83
2022-11-30T20:24:34.595Z,9.83
2022-11-30T20:27:03.714Z,9.81
2022-11-30T20:29:32.151Z,9.81
2022-11-30T20:32:00.357Z,9.82
2022-11-30T20:34:34.232Z,9.82
2022-11-30T20:37:04.986Z,9.82
2022-11-30T20:39:33.480Z,9.81
2022-11-30T20:42:01.650Z,9.81
2022-11-30T20:44:30.509Z,9.80
2022-11-30T20:46:58.864Z,9.81
2022-11-30T20:49:27.003Z,9.81
2022-11-30T20:51:55.181Z,9.80
2022-11-30T20:54:25.329Z,9.81
2022-11-30T20:56:53.930Z,9.81
2022-11-30T20:59:26.496Z,9.80
2022-11-30T21:01:56.556Z,9.81
2022-11-30T21:04:25.888Z,9.84
2022-11-30T21:06:54.687Z,9.81
2022-11-30T21:09:24.575Z,9.83
2022-11-30T21:11:52.738Z,9.81
2022-11-30T21:14:20.982Z,9.82
2022-11-30T21:16:50.479Z,9.81
2022-11-30T21:19:18.814Z,9.81
2022-11-30T21:21:47.277Z,9.80
2022-11-30T21:24:15.378Z,9.77
2022-11-30T21:26:45.304Z,9.79
2022-11-30T21:29:16.606Z,9.78
2022-11-30T21:31:45.101Z,9.79
2022-11-30T21:34:13.273Z,9.77
2022-11-30T21:36:42.317Z,9.77
2022-11-30T21:39:20.091Z,9.77
2022-11-30T21:41:49.753Z,9.77
2022-11-30T21:44:18.515Z,9.77
2022-11-30T21:46:48.072Z,9.77
2022-11-30T21:49:17.068Z,9.77
2022-11-30T21:51:47.012Z,9.74
2022-11-30T21:54:18.121Z,9.75
2022-11-30T21:56:46.332Z,9.75
2022-11-30T21:59:18.073Z,9.74
2022-11-30T22:01:47.580Z,9.75
2022-11-30T22:04:19.786Z,9.73
2022-11-30T22:06:48.410Z,9.73
2022-11-30T22:09:19.182Z,9.70
2022-11-30T22:11:47.538Z,9.67
2022-11-30T22:14:18.203Z,9.64
2022-11-30T22:16:47.080Z,9.64
2022-11-30T22:19:16.444Z,9.62
2022-11-30T22:21:49.794Z,9.60
2022-11-30T22:24:18.757Z,9.59
2022-11-30T22:26:49.154Z,9.56
2022-11-30T22:29:20.541Z,9.53
2022-11-30T22:31:50.613Z,9.48
2022-11-30T22:34:18.549Z,9.46
2022-11-30T22:36:47.821Z,9.41
2022-11-30T22:39:18.132Z,9.38
2022-11-30T22:41:53.094Z,9.37
2022-11-30T22:44:25.783Z,9.33
2022-11-30T22:46:57.600Z,9.29
2022-11-30T22:49:44.966Z,9.23
2022-11-30T22:52:13.171Z,9.20
2022-11-30T22:54:41.455Z,9.16
2022-11-30T22:57:09.730Z,9.12
2022-11-30T22:59:39.335Z,9.09
2022-11-30T23:02:07.434Z,9.06
2022-11-30T23:04:37.037Z,9.03
2022-11-30T23:07:05.192Z,8.99
2022-11-30T23:09:33.389Z,8.97
2022-11-30T23:12:01.765Z,8.92
2022-11-30T23:14:30.358Z,8.92
2022-11-30T23:16:59.966Z,8.87
2022-11-30T23:19:28.258Z,8.84
2022-11-30T23:21:56.486Z,8.77
2022-11-30T23:24:24.713Z,8.72
2022-11-30T23:26:52.978Z,8.66
2022-11-30T23:29:22.854Z,8.61
2022-11-30T23:31:51.149Z,8.55
2022-11-30T23:34:22.515Z,8.49
2022-11-30T23:36:51.371Z,8.46
2022-11-30T23:39:21.016Z,8.41
2022-11-30T23:41:49.587Z,8.41
2022-11-30T23:44:17.791Z,8.38
2022-11-30T23:46:46.268Z,8.37
2022-11-30T23:49:15.179Z,8.33
2022-11-30T23:51:44.777Z,8.31
2022-11-30T23:54:12.977Z,8.27
2022-11-30T23:56:41.161Z,8.22
2022-11-30T23:59:09.950Z,8.17
